createdAt,value
2019-04-20T00:02:13.761Z,6.62
2019-04-20T00:04:39.045Z,6.61
2019-04-20T00:07:10.208Z,5.40
2019-04-20T00:09:45.573Z,6.59
2019-04-20T00:12:19.369Z,6.53
2019-04-20T00:14:44.170Z,6.46
2019-04-20T00:17:14.309Z,6.42
2019-04-20T00:19:50.169Z,6.24
2019-04-20T00:22:24.662Z,6.32
2019-04-20T00:25:11.890Z,6.23
2019-04-20T00:28:16.496Z,6.21
2019-04-20T00:30:46.970Z,6.16
2019-04-20T00:33:09.531Z,6.08
2019-04-20T00:35:32.126Z,6.17
2019-04-20T00:38:03.361Z,6.15
2019-04-20T00:40:35.602Z,6.11
2019-04-20T00:43:06.662Z,6.11
2019-04-20T00:45:46.947Z,6.12
2019-04-20T00:48:22.664Z,6.12
2019-04-20T00:50:57.241Z,6.08
2019-04-20T00:53:22.888Z,6.07
2019-04-20T00:55:44.487Z,6.02
2019-04-20T00:58:20.052Z,5.99
2019-04-20T01:01:07.302Z,5.94
2019-04-20T01:03:37.734Z,5.93
2019-04-20T01:06:16.272Z,5.88
2019-04-20T01:08:40.211Z,5.87
2019-04-20T01:11:10.569Z,5.82
2019-04-20T01:13:46.111Z,5.78
2019-04-20T01:16:25.485Z,5.77
2019-04-20T01:18:47.241Z,5.71
2019-04-20T01:21:20.294Z,5.70
2019-04-20T01:23:54.569Z,5.65
2019-04-20T01:26:22.506Z,5.67
2019-04-20T01:29:06.776Z,5.65
2019-04-20T01:31:33.622Z,5.61
2019-04-20T01:34:03.058Z,5.58
2019-04-20T01:36:48.001Z,5.53
2019-04-20T01:39:12.519Z,5.52
2019-04-20T01:41:33.037Z,5.50
2019-04-20T01:44:03.149Z,5.49
2019-04-20T01:46:34.686Z,5.49
2019-04-20T01:49:11.599Z,5.48
2019-04-20T01:51:47.256Z,5.40
2019-04-20T01:54:26.117Z,5.37
2019-04-20T01:57:06.270Z,5.35
2019-04-20T01:59:57.743Z,5.34
2019-04-20T02:02:29.558Z,5.31
2019-04-20T02:05:10.274Z,5.28
2019-04-20T02:07:38.823Z,5.25
2019-04-20T02:10:10.503Z,5.24
2019-04-20T02:12:41.222Z,5.22
2019-04-20T02:15:22.165Z,5.22
2019-04-20T02:17:57.746Z,5.21
2019-04-20T02:20:33.058Z,5.16
2019-04-20T02:23:03.162Z,5.13
2019-04-20T02:25:18.733Z,5.11
2019-04-20T02:27:54.842Z,5.07
2019-04-20T02:30:57.992Z,5.08
2019-04-20T02:33:34.934Z,5.05
2019-04-20T02:36:10.358Z,5.03
2019-04-20T02:39:05.561Z,5.00
2019-04-20T02:41:19.856Z,4.95
2019-04-20T02:43:58.138Z,4.94
2019-04-20T02:46:15.247Z,4.95
2019-04-20T02:48:56.830Z,4.92
2019-04-20T02:51:25.254Z,4.87
2019-04-20T02:54:05.627Z,4.87
2019-04-20T02:56:32.374Z,4.87
2019-04-20T02:59:29.682Z,4.85
2019-04-20T03:01:36.391Z,4.83
2019-04-20T03:03:52.580Z,4.80
2019-04-20T03:06:34.579Z,4.78
2019-04-20T03:09:17.262Z,4.75
2019-04-20T03:11:53.886Z,4.71
2019-04-20T03:14:16.415Z,4.67
2019-04-20T03:16:45.512Z,4.67
2019-04-20T03:19:17.419Z,4.67
2019-04-20T03:22:00.107Z,4.67
2019-04-20T03:24:33.184Z,4.65
2019-04-20T03:26:56.896Z,4.63
2019-04-20T03:29:46.923Z,4.62
2019-04-20T03:35:18.245Z,4.59
2019-04-20T03:37:36.436Z,4.55
2019-04-20T03:39:58.027Z,4.55
2019-04-20T03:42:16.111Z,4.55
2019-04-20T03:44:52.912Z,4.55
2019-04-20T03:47:30.579Z,4.56
2019-04-20T03:50:14.734Z,4.59
2019-04-20T03:52:43.062Z,4.57
2019-04-20T03:55:41.959Z,4.58
2019-04-20T03:58:10.073Z,4.61
2019-04-20T04:00:54.258Z,4.66
2019-04-20T04:03:47.249Z,4.70
2019-04-20T04:06:05.450Z,4.74
2019-04-20T04:08:34.409Z,4.78
2019-04-20T04:11:17.509Z,4.83
2019-04-20T04:13:29.860Z,4.88
2019-04-20T04:16:06.118Z,4.94
2019-04-20T04:18:38.676Z,4.97
2019-04-20T04:21:11.069Z,4.96
2019-04-20T04:23:48.728Z,5.03
2019-04-20T04:26:29.198Z,5.08
2019-04-20T04:28:53.714Z,5.14
2019-04-20T04:31:33.579Z,5.18
2019-04-20T04:34:02.573Z,5.23
2019-04-20T04:36:29.996Z,5.25
2019-04-20T04:39:11.363Z,5.23
2019-04-20T04:41:36.713Z,5.30
2019-04-20T04:44:08.673Z,5.38
2019-04-20T04:46:22.776Z,5.46
2019-04-20T04:48:58.327Z,5.55
2019-04-20T04:51:33.298Z,5.59
2019-04-20T04:54:03.934Z,5.69
2019-04-20T04:56:30.201Z,5.81
2019-04-20T04:59:00.354Z,5.95
2019-04-20T05:01:33.980Z,6.04
2019-04-20T05:04:23.277Z,6.12
2019-04-20T05:06:52.266Z,6.21
2019-04-20T05:09:10.646Z,6.32
2019-04-20T05:11:38.695Z,6.42
2019-04-20T05:14:15.041Z,6.53
2019-04-20T05:16:54.568Z,6.64
2019-04-20T05:19:36.822Z,6.73
2019-04-20T05:22:14.901Z,6.87
2019-04-20T05:24:51.835Z,7.01
2019-04-20T05:27:44.158Z,7.15
2019-04-20T05:29:51.282Z,7.38
2019-04-20T05:32:32.599Z,7.57
2019-04-20T05:35:17.984Z,7.82
2019-04-20T05:37:51.335Z,8.08
2019-04-20T05:40:22.309Z,8.33
2019-04-20T05:43:04.436Z,8.56
2019-04-20T05:45:32.694Z,8.76
2019-04-20T05:48:02.526Z,8.96
2019-04-20T05:50:36.561Z,9.15
2019-04-20T05:53:14.442Z,9.31
2019-04-20T05:55:46.997Z,9.55
2019-04-20T05:58:16.695Z,9.82
2019-04-20T06:00:56.803Z,10.03
2019-04-20T06:03:20.297Z,10.28
2019-04-20T06:05:59.406Z,10.47
2019-04-20T06:08:34.202Z,10.62
2019-04-20T06:10:56.007Z,10.75
2019-04-20T06:13:39.578Z,10.95
2019-04-20T06:16:40.386Z,11.12
2019-04-20T06:19:21.254Z,11.31
2019-04-20T06:22:02.150Z,11.51
2019-04-20T06:24:42.189Z,11.66
2019-04-20T06:27:16.030Z,11.85
2019-04-20T06:29:33.298Z,12.12
2019-04-20T06:32:17.337Z,12.41
2019-04-20T06:34:48.988Z,12.72
2019-04-20T06:37:02.053Z,13.06
2019-04-20T06:39:44.761Z,13.45
2019-04-20T06:42:14.722Z,13.80
2019-04-20T06:44:39.318Z,14.16
2019-04-20T06:47:30.737Z,14.52
2019-04-20T06:49:45.337Z,14.77
2019-04-20T06:55:21.831Z,15.19
2019-04-20T07:00:17.180Z,15.71
2019-04-20T07:05:21.182Z,16.10
2019-04-20T07:08:00.811Z,16.31
2019-04-20T07:10:38.117Z,16.48
2019-04-20T07:12:49.583Z,16.57
2019-04-20T07:15:22.930Z,16.67
2019-04-20T07:18:04.261Z,16.71
2019-04-20T07:20:46.298Z,16.86
2019-04-20T07:23:20.264Z,16.87
2019-04-20T07:25:43.299Z,16.99
2019-04-20T07:28:14.427Z,17.20
2019-04-20T07:30:46.452Z,17.54
2019-04-20T07:33:17.253Z,17.92
2019-04-20T07:35:46.210Z,18.30
2019-04-20T07:40:50.991Z,19.18
2019-04-20T07:43:19.759Z,19.62
2019-04-20T07:45:56.895Z,19.96
2019-04-20T07:48:24.836Z,20.32
2019-04-20T07:50:50.966Z,20.58
2019-04-20T07:53:26.033Z,20.72
2019-04-20T07:56:07.579Z,20.87
2019-04-20T07:58:28.526Z,20.98
2019-04-20T08:01:22.537Z,21.11
2019-04-20T08:03:59.918Z,21.23
2019-04-20T08:06:22.031Z,21.32
2019-04-20T08:09:02.469Z,21.36
2019-04-20T08:11:41.223Z,21.42
2019-04-20T08:14:18.875Z,21.39
2019-04-20T08:19:12.203Z,21.39
2019-04-20T08:21:48.684Z,21.34
2019-04-20T08:24:17.006Z,21.35
2019-04-20T08:26:41.652Z,21.34
2019-04-20T08:29:28.205Z,21.31
2019-04-20T08:32:32.551Z,21.35
2019-04-20T08:35:15.452Z,21.37
2019-04-20T08:37:45.923Z,21.42
2019-04-20T08:40:15.068Z,21.57
2019-04-20T08:42:57.230Z,21.76
2019-04-20T08:45:18.065Z,21.92
2019-04-20T08:47:51.924Z,22.00
2019-04-20T08:53:09.049Z,22.25
2019-04-20T08:55:19.561Z,22.32
2019-04-20T08:57:35.552Z,22.40
2019-04-20T09:00:09.029Z,22.44
2019-04-20T09:02:41.271Z,22.56
2019-04-20T09:05:29.476Z,22.58
2019-04-20T09:07:56.501Z,22.60
2019-04-20T09:10:39.265Z,22.79
2019-04-20T09:13:03.979Z,23.01
2019-04-20T09:15:21.092Z,23.18
2019-04-20T09:18:00.987Z,23.32
2019-04-20T09:20:36.533Z,23.52
2019-04-20T09:23:26.615Z,23.80
2019-04-20T09:28:28.565Z,24.10
2019-04-20T09:31:11.957Z,24.32
2019-04-20T09:34:08.833Z,24.50
2019-04-20T09:36:37.500Z,24.61
2019-04-20T09:39:16.418Z,24.67
2019-04-20T09:42:01.099Z,24.74
2019-04-20T09:44:35.909Z,24.55
2019-04-20T09:47:02.987Z,24.41
2019-04-20T09:49:43.870Z,24.58
2019-04-20T09:52:17.011Z,24.62
2019-04-20T09:54:52.770Z,24.70
2019-04-20T09:57:24.255Z,24.92
2019-04-20T09:59:59.867Z,25.10
2019-04-20T10:02:20.153Z,24.99
2019-04-20T10:04:43.927Z,25.02
2019-04-20T10:07:17.743Z,25.23
2019-04-20T10:09:46.995Z,25.39
2019-04-20T10:12:18.113Z,25.59
2019-04-20T10:14:49.057Z,25.81
2019-04-20T10:17:20.209Z,25.86
2019-04-20T10:19:51.368Z,25.93
2019-04-20T10:22:22.575Z,26.07
2019-04-20T10:24:57.173Z,25.94
2019-04-20T10:27:28.457Z,25.98
2019-04-20T10:30:01.210Z,25.94
2019-04-20T10:32:38.903Z,26.06
2019-04-20T10:35:02.591Z,26.33
2019-04-20T10:37:39.770Z,26.34
2019-04-20T10:40:11.507Z,26.34
2019-04-20T10:42:41.913Z,26.37
2019-04-20T10:45:12.868Z,26.49
2019-04-20T10:47:43.180Z,26.69
2019-04-20T10:50:13.769Z,26.73
2019-04-20T10:52:43.922Z,26.49
2019-04-20T10:55:14.683Z,26.65
2019-04-20T10:57:45.861Z,26.58
2019-04-20T11:00:17.509Z,26.57
2019-04-20T11:02:50.491Z,26.76
2019-04-20T11:05:20.374Z,26.61
2019-04-20T11:07:50.662Z,26.76
2019-04-20T11:10:25.721Z,26.80
2019-04-20T11:12:52.616Z,26.77
2019-04-20T11:15:24.075Z,26.93
2019-04-20T11:17:55.380Z,26.65
2019-04-20T11:20:27.580Z,26.61
2019-04-20T11:23:00.154Z,26.72
2019-04-20T11:25:30.444Z,26.82
2019-04-20T11:28:01.614Z,26.89
2019-04-20T11:30:32.266Z,26.92
2019-04-20T11:33:02.433Z,26.90
2019-04-20T11:35:37.251Z,27.01
2019-04-20T11:38:05.020Z,27.00
2019-04-20T11:40:35.286Z,26.74
2019-04-20T11:43:05.779Z,26.96
2019-04-20T11:45:36.410Z,26.81
2019-04-20T11:48:07.511Z,26.80
2019-04-20T11:50:37.822Z,26.95
2019-04-20T11:53:09.045Z,27.01
2019-04-20T11:55:40.400Z,27.01
2019-04-20T11:58:12.060Z,26.49
2019-04-20T12:00:54.586Z,26.85
2019-04-20T12:03:24.874Z,26.92
2019-04-20T12:05:55.211Z,26.97
2019-04-20T12:08:25.049Z,26.84
2019-04-20T12:10:59.475Z,26.69
2019-04-20T12:13:27.071Z,26.75
2019-04-20T12:15:57.197Z,26.97
2019-04-20T12:18:27.668Z,26.69
2019-04-20T12:20:58.895Z,26.91
2019-04-20T12:23:30.378Z,26.95
2019-04-20T12:26:02.013Z,27.00
2019-04-20T12:28:33.602Z,26.97
2019-04-20T12:31:11.399Z,26.95
2019-04-20T12:33:36.708Z,26.49
2019-04-20T12:36:08.469Z,26.64
2019-04-20T12:38:39.158Z,26.67
2019-04-20T12:41:12.430Z,26.49
2019-04-20T12:43:41.519Z,26.31
2019-04-20T12:46:16.591Z,26.25
2019-04-20T12:48:44.695Z,26.25
2019-04-20T12:51:15.549Z,26.15
2019-04-20T12:53:46.649Z,26.18
2019-04-20T12:56:17.002Z,26.17
2019-04-20T12:58:47.472Z,26.11
2019-04-20T13:01:20.428Z,26.00
2019-04-20T13:03:49.884Z,25.91
2019-04-20T13:06:20.010Z,25.91
2019-04-20T13:08:53.753Z,25.86
2019-04-20T13:11:29.077Z,25.49
2019-04-20T13:14:20.610Z,25.70
2019-04-20T13:16:52.193Z,25.60
2019-04-20T13:19:23.507Z,25.50
2019-04-20T13:21:54.790Z,25.29
2019-04-20T13:24:25.113Z,25.34
2019-04-20T13:26:55.291Z,25.27
2019-04-20T13:29:26.774Z,25.28
2019-04-20T13:31:58.367Z,25.24
2019-04-20T13:34:28.735Z,25.10
2019-04-20T13:37:00.043Z,25.08
2019-04-20T13:39:30.953Z,24.97
2019-04-20T13:42:10.330Z,24.87
2019-04-20T13:44:34.967Z,24.67
2019-04-20T13:47:05.201Z,24.65
2019-04-20T13:49:36.723Z,24.49
2019-04-20T13:52:06.981Z,24.44
2019-04-20T13:54:38.020Z,24.45
2019-04-20T13:57:11.177Z,24.38
2019-04-20T13:59:48.180Z,24.16
2019-04-20T14:02:36.280Z,24.08
2019-04-20T14:05:06.971Z,24.04
2019-04-20T14:07:37.644Z,23.96
2019-04-20T14:10:09.226Z,23.91
2019-04-20T14:12:53.314Z,23.69
2019-04-20T14:15:13.211Z,23.54
2019-04-20T14:17:43.463Z,23.50
2019-04-20T14:20:16.806Z,23.39
2019-04-20T14:22:45.605Z,23.37
2019-04-20T14:25:15.926Z,23.32
2019-04-20T14:27:46.672Z,23.19
2019-04-20T14:30:17.172Z,23.17
2019-04-20T14:32:48.214Z,23.16
2019-04-20T14:35:18.824Z,23.03
2019-04-20T14:37:49.935Z,22.94
2019-04-20T14:40:22.122Z,22.88
2019-04-20T14:42:55.099Z,22.86
2019-04-20T14:45:26.803Z,22.76
2019-04-20T14:47:57.479Z,22.72
2019-04-20T14:50:29.708Z,22.73
2019-04-20T14:52:59.986Z,22.68
2019-04-20T14:55:31.346Z,22.60
2019-04-20T14:58:06.148Z,22.61
2019-04-20T15:00:52.648Z,22.51
2019-04-20T15:03:33.129Z,22.42
2019-04-20T15:06:05.372Z,22.32
2019-04-20T15:08:36.786Z,22.30
2019-04-20T15:11:07.410Z,22.38
2019-04-20T15:13:38.747Z,22.39
2019-04-20T15:16:09.087Z,22.33
2019-04-20T15:19:00.928Z,22.36
2019-04-20T15:21:31.711Z,22.28
2019-04-20T15:24:01.837Z,22.19
2019-04-20T15:26:32.064Z,22.22
2019-04-20T15:29:02.228Z,22.17
2019-04-20T15:31:32.347Z,22.21
2019-04-20T15:34:03.327Z,22.19
2019-04-20T15:36:34.397Z,22.18
2019-04-20T15:39:07.301Z,22.09
2019-04-20T15:41:39.164Z,22.07
2019-04-20T15:44:09.355Z,21.96
2019-04-20T15:46:41.581Z,21.91
2019-04-20T15:49:13.615Z,21.85
2019-04-20T15:51:43.850Z,21.74
2019-04-20T15:54:13.966Z,21.80
2019-04-20T15:56:54.899Z,21.66
2019-04-20T15:59:16.788Z,21.60
2019-04-20T16:01:51.413Z,21.68
2019-04-20T16:04:54.328Z,21.66
2019-04-20T16:07:25.525Z,21.68
2019-04-20T16:09:56.865Z,21.54
2019-04-20T16:12:27.134Z,21.56
2019-04-20T16:14:57.762Z,21.51
2019-04-20T16:17:32.758Z,21.59
2019-04-20T16:20:06.429Z,21.59
2019-04-20T16:22:31.794Z,21.53
2019-04-20T16:25:17.272Z,21.57
2019-04-20T16:27:47.695Z,21.25
2019-04-20T16:30:19.848Z,21.60
2019-04-20T16:32:50.338Z,21.56
2019-04-20T16:35:20.531Z,21.51
2019-04-20T16:37:50.805Z,21.57
2019-04-20T16:40:21.137Z,21.51
2019-04-20T16:42:52.133Z,21.49
2019-04-20T16:45:23.262Z,21.42
2019-04-20T16:47:54.504Z,21.36
2019-04-20T16:50:24.837Z,21.35
2019-04-20T16:52:55.113Z,21.24
2019-04-20T16:55:25.247Z,21.19
2019-04-20T16:57:55.681Z,21.17
2019-04-20T17:00:27.424Z,21.13
2019-04-20T17:02:58.479Z,21.00
2019-04-20T17:05:29.252Z,20.94
2019-04-20T17:08:00.692Z,20.94
2019-04-20T17:10:31.080Z,20.92
2019-04-20T17:13:01.927Z,20.87
2019-04-20T17:15:32.286Z,20.78
2019-04-20T17:18:03.466Z,20.68
2019-04-20T17:20:34.706Z,20.63
2019-04-20T17:23:07.367Z,20.61
2019-04-20T17:25:37.793Z,20.47
2019-04-20T17:28:40.694Z,20.44
2019-04-20T17:31:19.671Z,20.37
2019-04-20T17:34:04.680Z,20.29
2019-04-20T17:36:31.131Z,20.19
2019-04-20T17:39:06.250Z,20.09
2019-04-20T17:41:52.668Z,20.01
2019-04-20T17:44:20.966Z,19.94
2019-04-20T17:46:50.383Z,19.87
2019-04-20T17:49:28.292Z,19.81
2019-04-20T17:52:05.809Z,19.72
2019-04-20T17:54:33.555Z,19.62
2019-04-20T17:57:08.735Z,19.53
2019-04-20T17:59:47.246Z,19.43
2019-04-20T18:02:44.364Z,19.35
2019-04-20T18:05:43.078Z,19.27
2019-04-20T18:08:16.499Z,19.15
2019-04-20T18:10:37.915Z,19.05
2019-04-20T18:13:06.183Z,18.95
2019-04-20T18:15:45.205Z,18.85
2019-04-20T18:18:44.136Z,18.74
2019-04-20T18:21:10.819Z,18.64
2019-04-20T18:23:44.777Z,18.48
2019-04-20T18:26:31.745Z,18.38
2019-04-20T18:29:10.635Z,18.24
2019-04-20T18:31:37.606Z,18.15
2019-04-20T18:34:29.164Z,18.05
2019-04-20T18:37:02.125Z,17.92
2019-04-20T18:39:38.723Z,17.78
2019-04-20T18:42:15.812Z,17.65
2019-04-20T18:44:54.613Z,17.53
2019-04-20T18:47:30.247Z,17.43
2019-04-20T18:49:49.221Z,17.30
2019-04-20T18:52:11.560Z,17.20
2019-04-20T18:54:44.983Z,17.13
2019-04-20T18:57:19.637Z,17.04
2019-04-20T18:59:49.448Z,16.91
2019-04-20T19:02:24.923Z,16.77
2019-04-20T19:04:50.071Z,16.63
2019-04-20T19:07:21.703Z,16.41
2019-04-20T19:09:53.266Z,16.37
2019-04-20T19:12:35.375Z,16.24
2019-04-20T19:15:28.205Z,16.10
2019-04-20T19:18:06.533Z,16.03
2019-04-20T19:20:28.895Z,15.95
2019-04-20T19:23:00.049Z,15.81
2019-04-20T19:25:33.127Z,15.71
2019-04-20T19:28:04.703Z,15.63
2019-04-20T19:30:40.736Z,15.51
2019-04-20T19:33:22.690Z,15.42
2019-04-20T19:35:46.585Z,15.29
2019-04-20T19:38:17.628Z,15.16
2019-04-20T19:40:51.517Z,15.00
2019-04-20T19:43:22.357Z,14.89
2019-04-20T19:46:24.377Z,14.76
2019-04-20T19:48:32.657Z,14.65
2019-04-20T19:51:12.977Z,14.50
2019-04-20T19:53:44.592Z,14.43
2019-04-20T19:56:05.332Z,14.35
2019-04-20T19:58:37.583Z,14.26
2019-04-20T20:01:01.141Z,14.15
2019-04-20T20:03:30.857Z,14.06
2019-04-20T20:06:01.525Z,13.98
2019-04-20T20:08:34.804Z,13.91
2019-04-20T20:11:05.193Z,13.84
2019-04-20T20:13:43.004Z,13.65
2019-04-20T20:16:14.453Z,13.55
2019-04-20T20:18:55.815Z,13.44
2019-04-20T20:21:23.746Z,13.35
2019-04-20T20:23:43.832Z,13.25
2019-04-20T20:26:23.100Z,13.12
2019-04-20T20:28:52.722Z,13.01
2019-04-20T20:31:28.288Z,12.93
2019-04-20T20:34:05.927Z,12.91
2019-04-20T20:36:28.935Z,12.85
2019-04-20T20:39:02.888Z,12.81
2019-04-20T20:41:33.166Z,12.73
2019-04-20T20:44:05.812Z,12.66
2019-04-20T20:46:37.814Z,12.56
2019-04-20T20:49:16.614Z,12.48
2019-04-20T20:51:55.901Z,12.37
2019-04-20T20:54:15.490Z,12.25
2019-04-20T20:56:47.366Z,12.17
2019-04-20T20:59:14.766Z,12.08
2019-04-20T21:01:50.303Z,11.99
2019-04-20T21:04:15.303Z,11.92
2019-04-20T21:06:46.805Z,11.85
2019-04-20T21:09:16.991Z,11.79
2019-04-20T21:11:51.131Z,11.74
2019-04-20T21:14:27.519Z,11.59
2019-04-20T21:17:04.149Z,11.49
2019-04-20T21:19:45.330Z,11.45
2019-04-20T21:22:04.827Z,11.36
2019-04-20T21:24:33.722Z,11.29
2019-04-20T21:27:09.960Z,11.20
2019-04-20T21:29:43.544Z,11.15
2019-04-20T21:32:12.182Z,11.11
2019-04-20T21:34:43.290Z,11.09
2019-04-20T21:37:18.938Z,11.07
2019-04-20T21:39:51.838Z,11.05
2019-04-20T21:42:20.827Z,11.03
2019-04-20T21:44:50.352Z,11.00
2019-04-20T21:47:26.995Z,10.97
2019-04-20T21:50:09.569Z,10.89
2019-04-20T21:52:35.294Z,10.85
2019-04-20T21:54:58.169Z,10.77
2019-04-20T21:57:32.495Z,10.70
2019-04-20T22:00:10.150Z,10.64
2019-04-20T22:02:44.672Z,10.59
2019-04-20T22:05:07.322Z,10.49
2019-04-20T22:07:38.608Z,10.39
2019-04-20T22:10:13.293Z,10.30
2019-04-20T22:12:48.606Z,10.21
2019-04-20T22:15:19.889Z,10.15
2019-04-20T22:17:44.767Z,10.04
2019-04-20T22:20:23.513Z,9.93
2019-04-20T22:22:59.644Z,9.80
2019-04-20T22:25:37.401Z,9.81
2019-04-20T22:27:50.474Z,9.78
2019-04-20T22:30:21.987Z,9.62
2019-04-20T22:32:56.568Z,9.58
2019-04-20T22:35:28.134Z,9.51
2019-04-20T22:38:10.490Z,9.40
2019-04-20T22:40:38.620Z,9.32
2019-04-20T22:43:08.862Z,9.20
2019-04-20T22:45:45.486Z,9.12
2019-04-20T22:48:15.461Z,8.89
2019-04-20T22:50:57.686Z,8.87
2019-04-20T22:53:31.277Z,8.74
2019-04-20T22:56:05.717Z,8.66
2019-04-20T22:58:34.762Z,8.54
2019-04-20T23:00:55.900Z,8.57
2019-04-20T23:03:23.227Z,8.53
2019-04-20T23:05:54.437Z,8.46
2019-04-20T23:08:24.806Z,8.51
2019-04-20T23:10:56.014Z,8.38
2019-04-20T23:13:33.374Z,8.48
2019-04-20T23:16:01.967Z,8.24
2019-04-20T23:18:31.933Z,8.25
2019-04-20T23:21:07.976Z,8.28
2019-04-20T23:23:35.483Z,8.33
2019-04-20T23:26:07.146Z,8.48
2019-04-20T23:28:41.662Z,8.51
2019-04-20T23:31:15.818Z,8.56
2019-04-20T23:33:41.044Z,8.61
2019-04-20T23:36:11.584Z,8.62
2019-04-20T23:38:48.073Z,8.55
2019-04-20T23:41:15.487Z,8.44
2019-04-20T23:43:54.016Z,8.44
2019-04-20T23:46:37.438Z,8.32
2019-04-20T23:49:54.135Z,8.39
2019-04-20T23:52:32.372Z,8.49
2019-04-20T23:54:48.976Z,8.51
2019-04-20T23:57:13.576Z,8.42
2019-04-20T23:59:46.291Z,8.42
